createdAt,value
2024-05-09T00:00:42.000Z,1033.07
2024-05-09T00:01:42.000Z,1033.03
2024-05-09T00:02:42.000Z,1032.97
2024-05-09T00:03:43.000Z,1033.01
2024-05-09T00:04:43.000Z,1033.0
2024-05-09T00:05:43.000Z,1033.02
2024-05-09T00:06:43.000Z,1033.03
2024-05-09T00:07:44.000Z,1032.92
2024-05-09T00:08:44.000Z,1033.01
2024-05-09T00:09:44.000Z,1033.01
2024-05-09T00:10:44.000Z,1033.0
2024-05-09T00:11:45.000Z,1032.99
2024-05-09T00:12:45.000Z,1032.94
2024-05-09T00:13:45.000Z,1032.99
2024-05-09T00:14:45.000Z,1033.0
2024-05-09T00:15:46.000Z,1032.98
2024-05-09T00:16:46.000Z,1033.01
2024-05-09T00:17:46.000Z,1032.97
2024-05-09T00:18:46.000Z,1033.04
2024-05-09T00:19:47.000Z,1033.03
2024-05-09T00:20:47.000Z,1033.01
2024-05-09T00:21:47.000Z,1033.01
2024-05-09T00:22:47.000Z,1032.98
2024-05-09T00:23:48.000Z,1033.08
2024-05-09T00:24:48.000Z,1033.01
2024-05-09T00:25:48.000Z,1033.04
2024-05-09T00:26:48.000Z,1033.01
2024-05-09T00:27:49.000Z,1032.95
2024-05-09T00:28:49.000Z,1033.02
2024-05-09T00:29:49.000Z,1033.03
2024-05-09T00:30:49.000Z,1033.01
2024-05-09T00:31:50.000Z,1033.02
2024-05-09T00:32:50.000Z,1032.96
2024-05-09T00:33:50.000Z,1033.0
2024-05-09T00:34:50.000Z,1032.99
2024-05-09T00:35:51.000Z,1033.02
2024-05-09T00:36:51.000Z,1032.95
2024-05-09T00:37:51.000Z,1032.97
2024-05-09T00:38:51.000Z,1033.02
2024-05-09T00:39:52.000Z,1033.04
2024-05-09T00:40:52.000Z,1033.04
2024-05-09T00:41:52.000Z,1033.04
2024-05-09T00:42:52.000Z,1032.99
2024-05-09T00:43:53.000Z,1032.98
2024-05-09T00:44:53.000Z,1032.98
2024-05-09T00:45:53.000Z,1032.99
2024-05-09T00:46:54.000Z,1032.99
2024-05-09T00:47:54.000Z,1032.91
2024-05-09T00:48:54.000Z,1032.95
2024-05-09T00:49:54.000Z,1032.94
2024-05-09T00:50:55.000Z,1032.95
2024-05-09T00:51:55.000Z,1032.92
2024-05-09T00:52:55.000Z,1032.89
2024-05-09T00:53:56.000Z,1032.95
2024-05-09T00:54:56.000Z,1032.94
2024-05-09T00:55:56.000Z,1032.94
2024-05-09T00:56:56.000Z,1032.95
2024-05-09T00:57:57.000Z,1032.93
2024-05-09T00:58:57.000Z,1032.91
2024-05-09T00:59:57.000Z,1032.95
2024-05-09T01:00:57.000Z,1032.92
2024-05-09T01:01:58.000Z,1032.9
2024-05-09T01:02:58.000Z,1032.93
2024-05-09T01:03:58.000Z,1032.91
2024-05-09T01:04:58.000Z,1032.91
2024-05-09T01:05:59.000Z,1032.89
2024-05-09T01:06:59.000Z,1032.88
2024-05-09T01:07:59.000Z,1032.93
2024-05-09T01:08:59.000Z,1032.93
2024-05-09T01:10:00.000Z,1032.93
2024-05-09T01:11:00.000Z,1032.93
2024-05-09T01:12:00.000Z,1032.85
2024-05-09T01:13:00.000Z,1032.89
2024-05-09T01:14:01.000Z,1032.92
2024-05-09T01:15:01.000Z,1032.88
2024-05-09T01:16:01.000Z,1032.83
2024-05-09T01:17:01.000Z,1032.84
2024-05-09T01:18:02.000Z,1032.88
2024-05-09T01:19:02.000Z,1032.85
2024-05-09T01:20:02.000Z,1032.87
2024-05-09T01:21:02.000Z,1032.85
2024-05-09T01:22:03.000Z,1032.86
2024-05-09T01:23:03.000Z,1032.8
2024-05-09T01:24:03.000Z,1032.87
2024-05-09T01:25:04.000Z,1032.83
2024-05-09T01:26:04.000Z,1032.84
2024-05-09T01:27:04.000Z,1032.83
2024-05-09T01:28:04.000Z,1032.83
2024-05-09T01:29:04.000Z,1032.78
2024-05-09T01:30:05.000Z,1032.89
2024-05-09T01:31:05.000Z,1032.85
2024-05-09T01:32:05.000Z,1032.95
2024-05-09T01:33:06.000Z,1032.98
2024-05-09T01:34:06.000Z,1032.9
2024-05-09T01:35:06.000Z,1032.97
2024-05-09T01:36:06.000Z,1032.97
2024-05-09T01:37:07.000Z,1032.97
2024-05-09T01:38:07.000Z,1032.96
2024-05-09T01:39:07.000Z,1032.94
2024-05-09T01:40:07.000Z,1032.9
2024-05-09T01:41:08.000Z,1032.95
2024-05-09T01:42:08.000Z,1032.98
2024-05-09T01:43:08.000Z,1032.96
2024-05-09T01:44:09.000Z,1032.99
2024-05-09T01:45:09.000Z,1032.98
2024-05-09T01:46:09.000Z,1032.99
2024-05-09T01:47:09.000Z,1033.04
2024-05-09T01:48:10.000Z,1033.0
2024-05-09T01:49:10.000Z,1033.04
2024-05-09T01:50:10.000Z,1033.05
2024-05-09T01:51:10.000Z,1033.01
2024-05-09T01:52:11.000Z,1033.0
2024-05-09T01:53:11.000Z,1033.12
2024-05-09T01:54:11.000Z,1033.08
2024-05-09T01:55:11.000Z,1033.07
2024-05-09T01:56:12.000Z,1033.03
2024-05-09T01:57:12.000Z,1032.99
2024-05-09T01:58:12.000Z,1033.07
2024-05-09T01:59:12.000Z,1033.05
2024-05-09T02:00:13.000Z,1033.03
2024-05-09T02:01:13.000Z,1032.97
2024-05-09T02:02:13.000Z,1032.99
2024-05-09T02:03:13.000Z,1033.02
2024-05-09T02:04:14.000Z,1032.99
2024-05-09T02:05:14.000Z,1033.01
2024-05-09T02:06:14.000Z,1032.93
2024-05-09T02:07:14.000Z,1032.97
2024-05-09T02:08:15.000Z,1033.0
2024-05-09T02:09:15.000Z,1033.03
2024-05-09T02:10:15.000Z,1033.05
2024-05-09T02:11:15.000Z,1032.99
2024-05-09T02:12:16.000Z,1033.04
2024-05-09T02:13:16.000Z,1033.06
2024-05-09T02:14:16.000Z,1033.08
2024-05-09T02:15:16.000Z,1033.09
2024-05-09T02:16:17.000Z,1033.04
2024-05-09T02:17:17.000Z,1033.05
2024-05-09T02:18:17.000Z,1033.07
2024-05-09T02:19:17.000Z,1033.06
2024-05-09T02:20:18.000Z,1033.09
2024-05-09T02:21:18.000Z,1032.98
2024-05-09T02:22:18.000Z,1033.05
2024-05-09T02:23:18.000Z,1033.01
2024-05-09T02:24:19.000Z,1033.01
2024-05-09T02:25:19.000Z,1032.99
2024-05-09T02:26:19.000Z,1032.95
2024-05-09T02:27:19.000Z,1032.94
2024-05-09T02:28:20.000Z,1032.95
2024-05-09T02:29:20.000Z,1032.94
2024-05-09T02:30:20.000Z,1032.96
2024-05-09T02:31:20.000Z,1032.91
2024-05-09T02:32:21.000Z,1032.95
2024-05-09T02:33:21.000Z,1032.96
2024-05-09T02:34:21.000Z,1032.97
2024-05-09T02:35:21.000Z,1032.95
2024-05-09T02:36:22.000Z,1032.92
2024-05-09T02:37:22.000Z,1032.93
2024-05-09T02:38:22.000Z,1032.92
2024-05-09T02:39:23.000Z,1032.92
2024-05-09T02:40:23.000Z,1032.89
2024-05-09T02:41:23.000Z,1032.93
2024-05-09T02:42:23.000Z,1032.92
2024-05-09T02:43:24.000Z,1032.92
2024-05-09T02:44:24.000Z,1032.91
2024-05-09T02:45:24.000Z,1032.93
2024-05-09T02:46:25.000Z,1032.92
2024-05-09T02:47:25.000Z,1032.98
2024-05-09T02:48:25.000Z,1032.93
2024-05-09T02:49:25.000Z,1033.02
2024-05-09T02:50:26.000Z,1032.91
2024-05-09T02:51:26.000Z,1032.95
2024-05-09T02:52:26.000Z,1032.93
2024-05-09T02:53:26.000Z,1033.01
2024-05-09T02:54:27.000Z,1032.99
2024-05-09T02:55:27.000Z,1032.93
2024-05-09T02:56:27.000Z,1032.95
2024-05-09T02:57:27.000Z,1033.03
2024-05-09T02:58:28.000Z,1032.93
2024-05-09T02:59:28.000Z,1032.98
2024-05-09T03:00:28.000Z,1032.95
2024-05-09T03:01:28.000Z,1032.97
2024-05-09T03:02:29.000Z,1032.92
2024-05-09T03:03:29.000Z,1032.96
2024-05-09T03:04:29.000Z,1032.9
2024-05-09T03:05:29.000Z,1032.95
2024-05-09T03:06:30.000Z,1032.89
2024-05-09T03:07:30.000Z,1032.91
2024-05-09T03:08:30.000Z,1032.85
2024-05-09T03:09:30.000Z,1032.84
2024-05-09T03:10:31.000Z,1032.88
2024-05-09T03:11:31.000Z,1032.91
2024-05-09T03:12:31.000Z,1032.84
2024-05-09T03:13:31.000Z,1032.9
2024-05-09T03:14:32.000Z,1032.77
2024-05-09T03:15:32.000Z,1032.87
2024-05-09T03:16:32.000Z,1032.84
2024-05-09T03:17:33.000Z,1032.88
2024-05-09T03:18:33.000Z,1032.85
2024-05-09T03:19:33.000Z,1032.86
2024-05-09T03:20:33.000Z,1032.82
2024-05-09T03:21:34.000Z,1032.9
2024-05-09T03:22:34.000Z,1032.85
2024-05-09T03:23:34.000Z,1032.92
2024-05-09T03:24:34.000Z,1032.82
2024-05-09T03:25:35.000Z,1032.87
2024-05-09T03:26:35.000Z,1032.92
2024-05-09T03:27:35.000Z,1032.96
2024-05-09T03:28:35.000Z,1032.9
2024-05-09T03:29:36.000Z,1032.94
2024-05-09T03:30:36.000Z,1032.93
2024-05-09T03:31:36.000Z,1032.91
2024-05-09T03:32:36.000Z,1032.94
2024-05-09T03:33:37.000Z,1032.91
2024-05-09T03:34:37.000Z,1032.95
2024-05-09T03:35:37.000Z,1032.9
2024-05-09T03:36:37.000Z,1032.91
2024-05-09T03:37:38.000Z,1032.88
2024-05-09T03:38:38.000Z,1032.9
2024-05-09T03:39:38.000Z,1032.89
2024-05-09T03:40:38.000Z,1032.92
2024-05-09T03:41:39.000Z,1032.92
2024-05-09T03:42:39.000Z,1032.84
2024-05-09T03:43:39.000Z,1032.88
2024-05-09T03:44:39.000Z,1032.87
2024-05-09T03:45:40.000Z,1032.91
2024-05-09T03:46:40.000Z,1032.89
2024-05-09T03:47:40.000Z,1032.89
2024-05-09T03:48:40.000Z,1032.89
2024-05-09T03:49:41.000Z,1032.91
2024-05-09T03:50:41.000Z,1032.95
2024-05-09T03:51:41.000Z,1032.99
2024-05-09T03:52:41.000Z,1033.0
2024-05-09T03:53:42.000Z,1032.95
2024-05-09T03:54:42.000Z,1032.92
2024-05-09T03:55:42.000Z,1032.95
2024-05-09T03:56:42.000Z,1032.96
2024-05-09T03:57:43.000Z,1032.88
2024-05-09T03:58:43.000Z,1032.88
2024-05-09T03:59:43.000Z,1032.84
2024-05-09T04:00:44.000Z,1032.83
2024-05-09T04:01:44.000Z,1032.83
2024-05-09T04:02:44.000Z,1032.84
2024-05-09T04:03:44.000Z,1032.88
2024-05-09T04:04:45.000Z,1032.79
2024-05-09T04:05:45.000Z,1032.85
2024-05-09T04:06:45.000Z,1032.89
2024-05-09T04:07:45.000Z,1032.84
2024-05-09T04:08:46.000Z,1032.88
2024-05-09T04:09:46.000Z,1032.84
2024-05-09T04:10:46.000Z,1032.89
2024-05-09T04:11:46.000Z,1032.86
2024-05-09T04:12:47.000Z,1032.89
2024-05-09T04:13:47.000Z,1032.92
2024-05-09T04:14:47.000Z,1032.94
2024-05-09T04:15:47.000Z,1032.89
2024-05-09T04:16:48.000Z,1032.97
2024-05-09T04:17:48.000Z,1032.97
2024-05-09T04:18:48.000Z,1033.03
2024-05-09T04:19:49.000Z,1032.95
2024-05-09T04:20:49.000Z,1032.98
2024-05-09T04:21:49.000Z,1032.96
2024-05-09T04:22:49.000Z,1032.88
2024-05-09T04:23:50.000Z,1032.91
2024-05-09T04:24:50.000Z,1032.89
2024-05-09T04:25:50.000Z,1032.93
2024-05-09T04:26:51.000Z,1032.96
2024-05-09T04:27:51.000Z,1032.93
2024-05-09T04:28:51.000Z,1032.9
2024-05-09T04:29:51.000Z,1032.94
2024-05-09T04:30:52.000Z,1032.95
2024-05-09T04:31:52.000Z,1032.94
2024-05-09T04:32:52.000Z,1032.91
2024-05-09T04:33:53.000Z,1032.94
2024-05-09T04:34:53.000Z,1032.9
2024-05-09T04:35:53.000Z,1032.91
2024-05-09T04:36:53.000Z,1032.97
2024-05-09T04:37:54.000Z,1033.04
2024-05-09T04:38:54.000Z,1032.95
2024-05-09T04:39:54.000Z,1033.02
2024-05-09T04:40:54.000Z,1033.04
2024-05-09T04:41:55.000Z,1032.97
2024-05-09T04:42:55.000Z,1033.06
2024-05-09T04:43:55.000Z,1032.99
2024-05-09T04:44:55.000Z,1033.06
2024-05-09T04:45:56.000Z,1033.03
2024-05-09T04:46:56.000Z,1032.99
2024-05-09T04:47:56.000Z,1033.04
2024-05-09T04:48:56.000Z,1033.01
2024-05-09T04:49:57.000Z,1033.07
2024-05-09T04:50:57.000Z,1033.13
2024-05-09T04:51:57.000Z,1033.1
2024-05-09T04:52:57.000Z,1033.15
2024-05-09T04:53:58.000Z,1033.14
2024-05-09T04:54:58.000Z,1033.16
2024-05-09T04:55:58.000Z,1033.17
2024-05-09T04:56:58.000Z,1033.11
2024-05-09T04:57:59.000Z,1033.07
2024-05-09T04:58:59.000Z,1033.12
2024-05-09T04:59:59.000Z,1033.08
2024-05-09T05:00:59.000Z,1033.09
2024-05-09T05:02:00.000Z,1033.08
2024-05-09T05:03:00.000Z,1033.14
2024-05-09T05:04:00.000Z,1033.12
2024-05-09T05:05:01.000Z,1033.17
2024-05-09T05:06:01.000Z,1033.19
2024-05-09T05:07:01.000Z,1033.24
2024-05-09T05:08:01.000Z,1033.22
2024-05-09T05:09:02.000Z,1033.21
2024-05-09T05:10:02.000Z,1033.21
2024-05-09T05:11:02.000Z,1033.17
2024-05-09T05:12:02.000Z,1033.16
2024-05-09T05:13:03.000Z,1033.17
2024-05-09T05:14:03.000Z,1033.15
2024-05-09T05:15:03.000Z,1033.19
2024-05-09T05:16:04.000Z,1033.17
2024-05-09T05:17:04.000Z,1033.19
2024-05-09T05:18:04.000Z,1033.21
2024-05-09T05:19:04.000Z,1033.21
2024-05-09T05:20:05.000Z,1033.29
2024-05-09T05:21:05.000Z,1033.28
2024-05-09T05:22:05.000Z,1033.29
2024-05-09T05:23:05.000Z,1033.24
2024-05-09T05:24:06.000Z,1033.27
2024-05-09T05:25:06.000Z,1033.19
2024-05-09T05:26:06.000Z,1033.26
2024-05-09T05:27:06.000Z,1033.23
2024-05-09T05:28:07.000Z,1033.28
2024-05-09T05:29:07.000Z,1033.32
2024-05-09T05:30:07.000Z,1033.32
2024-05-09T05:31:07.000Z,1033.29
2024-05-09T05:32:08.000Z,1033.36
2024-05-09T05:33:08.000Z,1033.3
2024-05-09T05:34:08.000Z,1033.32
2024-05-09T05:35:08.000Z,1033.31
2024-05-09T05:36:09.000Z,1033.29
2024-05-09T05:37:09.000Z,1033.24
2024-05-09T05:38:09.000Z,1033.23
2024-05-09T05:39:09.000Z,1033.3
2024-05-09T05:40:10.000Z,1033.28
2024-05-09T05:41:10.000Z,1033.29
2024-05-09T05:42:10.000Z,1033.24
2024-05-09T05:43:10.000Z,1033.24
2024-05-09T05:44:11.000Z,1033.31
2024-05-09T05:45:11.000Z,1033.33
2024-05-09T05:46:11.000Z,1033.36
2024-05-09T05:47:11.000Z,1033.32
2024-05-09T05:48:12.000Z,1033.31
2024-05-09T05:49:12.000Z,1033.32
2024-05-09T05:50:12.000Z,1033.31
2024-05-09T05:51:12.000Z,1033.32
2024-05-09T05:52:13.000Z,1033.38
2024-05-09T05:53:13.000Z,1033.36
2024-05-09T05:54:13.000Z,1033.36
2024-05-09T05:55:13.000Z,1033.41
2024-05-09T05:56:14.000Z,1033.4
2024-05-09T05:57:14.000Z,1033.35
2024-05-09T05:58:14.000Z,1033.38
2024-05-09T05:59:14.000Z,1033.33
2024-05-09T06:00:15.000Z,1033.28
2024-05-09T06:01:15.000Z,1033.29
2024-05-09T06:02:15.000Z,1033.32
2024-05-09T06:03:16.000Z,1033.33
2024-05-09T06:04:16.000Z,1033.28
2024-05-09T06:05:16.000Z,1033.34
2024-05-09T06:06:16.000Z,1033.36
2024-05-09T06:07:17.000Z,1033.39
2024-05-09T06:08:17.000Z,1033.37
2024-05-09T06:09:17.000Z,1033.4
2024-05-09T06:10:18.000Z,1033.4
2024-05-09T06:11:18.000Z,1033.35
2024-05-09T06:12:18.000Z,1033.38
2024-05-09T06:13:18.000Z,1033.42
2024-05-09T06:14:18.000Z,1033.41
2024-05-09T06:15:19.000Z,1033.41
2024-05-09T06:16:19.000Z,1033.44
2024-05-09T06:17:19.000Z,1033.4
2024-05-09T06:18:19.000Z,1033.4
2024-05-09T06:19:20.000Z,1033.45
2024-05-09T06:20:20.000Z,1033.45
2024-05-09T06:21:20.000Z,1033.48
2024-05-09T06:22:20.000Z,1033.41
2024-05-09T06:23:21.000Z,1033.51
2024-05-09T06:24:21.000Z,1033.47
2024-05-09T06:25:21.000Z,1033.44
2024-05-09T06:26:22.000Z,1033.46
2024-05-09T06:27:22.000Z,1033.52
2024-05-09T06:28:22.000Z,1033.48
2024-05-09T06:29:22.000Z,1033.49
2024-05-09T06:30:23.000Z,1033.5
2024-05-09T06:31:23.000Z,1033.47
2024-05-09T06:32:23.000Z,1033.4
2024-05-09T06:33:23.000Z,1033.44
2024-05-09T06:34:24.000Z,1033.45
2024-05-09T06:35:24.000Z,1033.48
2024-05-09T06:36:24.000Z,1033.42
2024-05-09T06:37:24.000Z,1033.39
2024-05-09T06:38:25.000Z,1033.43
2024-05-09T06:39:25.000Z,1033.39
2024-05-09T06:40:25.000Z,1033.43
2024-05-09T06:41:26.000Z,1033.44
2024-05-09T06:42:26.000Z,1033.4
2024-05-09T06:43:26.000Z,1033.46
2024-05-09T06:44:26.000Z,1033.4
2024-05-09T06:45:27.000Z,1033.38
2024-05-09T06:46:27.000Z,1033.36
2024-05-09T06:47:27.000Z,1033.42
2024-05-09T06:48:27.000Z,1033.42
2024-05-09T06:49:28.000Z,1033.45
2024-05-09T06:50:28.000Z,1033.44
2024-05-09T06:51:28.000Z,1033.44
2024-05-09T06:52:28.000Z,1033.46
2024-05-09T06:53:29.000Z,1033.47
2024-05-09T06:54:29.000Z,1033.43
2024-05-09T06:55:29.000Z,1033.5
2024-05-09T06:56:29.000Z,1033.47
2024-05-09T06:57:30.000Z,1033.5
2024-05-09T06:58:30.000Z,1033.5
2024-05-09T06:59:30.000Z,1033.46
2024-05-09T07:00:31.000Z,1033.47
2024-05-09T07:01:31.000Z,1033.47
2024-05-09T07:02:31.000Z,1033.48
2024-05-09T07:03:31.000Z,1033.44
2024-05-09T07:04:32.000Z,1033.46
2024-05-09T07:05:32.000Z,1033.51
2024-05-09T07:06:32.000Z,1033.45
2024-05-09T07:07:32.000Z,1033.46
2024-05-09T07:08:33.000Z,1033.47
2024-05-09T07:09:33.000Z,1033.44
2024-05-09T07:10:33.000Z,1033.5
2024-05-09T07:11:33.000Z,1033.45
2024-05-09T07:12:34.000Z,1033.46
2024-05-09T07:13:34.000Z,1033.47
2024-05-09T07:14:34.000Z,1033.46
2024-05-09T07:15:34.000Z,1033.46
2024-05-09T07:16:35.000Z,1033.42
2024-05-09T07:17:35.000Z,1033.44
2024-05-09T07:18:35.000Z,1033.46
2024-05-09T07:19:35.000Z,1033.41
2024-05-09T07:20:36.000Z,1033.39
2024-05-09T07:21:36.000Z,1033.43
2024-05-09T07:22:36.000Z,1033.43
2024-05-09T07:23:36.000Z,1033.47
2024-05-09T07:24:37.000Z,1033.41
2024-05-09T07:25:37.000Z,1033.44
2024-05-09T07:26:37.000Z,1033.33
2024-05-09T07:27:37.000Z,1033.43
2024-05-09T07:28:38.000Z,1033.4
2024-05-09T07:29:38.000Z,1033.39
2024-05-09T07:30:38.000Z,1033.39
2024-05-09T07:31:38.000Z,1033.44
2024-05-09T07:32:39.000Z,1033.36
2024-05-09T07:33:39.000Z,1033.45
2024-05-09T07:34:39.000Z,1033.41
2024-05-09T07:35:39.000Z,1033.37
2024-05-09T07:36:40.000Z,1033.39
2024-05-09T07:37:40.000Z,1033.44
2024-05-09T07:38:40.000Z,1033.42
2024-05-09T07:39:40.000Z,1033.49
2024-05-09T07:40:41.000Z,1033.4
2024-05-09T07:41:41.000Z,1033.48
2024-05-09T07:41:41.000Z,1033.48
2024-05-09T07:42:41.000Z,1033.38
2024-05-09T07:42:41.000Z,1033.38
2024-05-09T07:43:42.000Z,1033.41
2024-05-09T07:43:42.000Z,1033.41
2024-05-09T07:44:42.000Z,1033.37
2024-05-09T07:44:42.000Z,1033.37
2024-05-09T07:45:42.000Z,1033.42
2024-05-09T07:45:42.000Z,1033.42
2024-05-09T07:46:42.000Z,1033.37
2024-05-09T07:46:42.000Z,1033.37
2024-05-09T07:47:43.000Z,1033.41
2024-05-09T07:47:43.000Z,1033.41
2024-05-09T07:48:43.000Z,1033.35
2024-05-09T07:48:43.000Z,1033.35
2024-05-09T07:49:43.000Z,1033.37
2024-05-09T07:49:43.000Z,1033.37
2024-05-09T07:50:44.000Z,1033.36
2024-05-09T07:50:44.000Z,1033.36
2024-05-09T07:51:44.000Z,1033.39
2024-05-09T07:52:44.000Z,1033.35
2024-05-09T07:53:44.000Z,1033.35
2024-05-09T07:54:45.000Z,1033.26
2024-05-09T07:55:45.000Z,1033.26
2024-05-09T07:56:45.000Z,1033.24
2024-05-09T07:57:46.000Z,1033.3
2024-05-09T07:58:46.000Z,1033.26
2024-05-09T07:59:46.000Z,1033.32
2024-05-09T08:00:47.000Z,1033.29
2024-05-09T08:01:47.000Z,1033.28
2024-05-09T08:02:48.000Z,1033.23
2024-05-09T08:03:48.000Z,1033.26
2024-05-09T08:04:48.000Z,1033.21
2024-05-09T08:05:48.000Z,1033.2
2024-05-09T08:06:48.000Z,1033.21
2024-05-09T08:07:49.000Z,1033.11
2024-05-09T08:08:49.000Z,1033.19
2024-05-09T08:09:49.000Z,1033.17
2024-05-09T08:10:49.000Z,1033.12
2024-05-09T08:11:50.000Z,1033.16
2024-05-09T08:12:50.000Z,1033.11
2024-05-09T08:13:50.000Z,1033.15
2024-05-09T08:14:51.000Z,1033.08
2024-05-09T08:15:51.000Z,1033.11
2024-05-09T08:16:51.000Z,1033.16
2024-05-09T08:17:51.000Z,1033.17
2024-05-09T08:18:52.000Z,1033.16
2024-05-09T08:19:52.000Z,1033.19
2024-05-09T08:20:52.000Z,1033.17
2024-05-09T08:21:52.000Z,1033.2
2024-05-09T08:22:53.000Z,1033.2
2024-05-09T08:23:53.000Z,1033.22
2024-05-09T08:24:53.000Z,1033.17
2024-05-09T08:25:53.000Z,1033.22
2024-05-09T08:26:54.000Z,1033.17
2024-05-09T08:27:54.000Z,1033.12
2024-05-09T08:28:54.000Z,1033.17
2024-05-09T08:29:54.000Z,1033.16
2024-05-09T08:30:55.000Z,1033.18
2024-05-09T08:31:55.000Z,1033.19
2024-05-09T08:32:55.000Z,1033.13
2024-05-09T08:33:55.000Z,1033.11
2024-05-09T08:34:56.000Z,1033.15
2024-05-09T08:35:56.000Z,1033.22
2024-05-09T08:36:56.000Z,1033.15
2024-05-09T08:37:57.000Z,1033.18
2024-05-09T08:38:57.000Z,1033.09
2024-05-09T08:39:57.000Z,1033.09
2024-05-09T08:40:57.000Z,1033.12
2024-05-09T08:41:58.000Z,1033.1
2024-05-09T08:42:58.000Z,1033.09
2024-05-09T08:43:58.000Z,1033.13
2024-05-09T08:44:59.000Z,1033.11
2024-05-09T08:45:59.000Z,1033.13
2024-05-09T08:46:59.000Z,1033.12
2024-05-09T08:47:59.000Z,1033.14
2024-05-09T08:49:00.000Z,1033.14
2024-05-09T08:50:00.000Z,1033.08
2024-05-09T08:51:00.000Z,1033.04
2024-05-09T08:52:00.000Z,1033.07
2024-05-09T08:53:01.000Z,1033.06
2024-05-09T08:54:01.000Z,1033.12
2024-05-09T08:55:01.000Z,1033.07
2024-05-09T08:56:02.000Z,1033.18
2024-05-09T08:57:02.000Z,1033.13
2024-05-09T08:58:02.000Z,1033.13
2024-05-09T08:59:02.000Z,1033.13
2024-05-09T09:00:03.000Z,1033.1
2024-05-09T09:01:03.000Z,1033.1
2024-05-09T09:02:03.000Z,1033.17
2024-05-09T09:03:03.000Z,1033.15
2024-05-09T09:04:04.000Z,1033.16
2024-05-09T09:05:04.000Z,1033.11
2024-05-09T09:06:04.000Z,1033.17
2024-05-09T09:07:04.000Z,1033.19
2024-05-09T09:08:05.000Z,1033.12
2024-05-09T09:09:05.000Z,1033.16
2024-05-09T09:10:05.000Z,1033.12
2024-05-09T09:11:05.000Z,1033.14
2024-05-09T09:12:06.000Z,1033.14
2024-05-09T09:13:06.000Z,1033.13
2024-05-09T09:14:06.000Z,1033.13
2024-05-09T09:15:06.000Z,1033.09
2024-05-09T09:16:07.000Z,1033.09
2024-05-09T09:17:07.000Z,1033.17
2024-05-09T09:18:07.000Z,1033.17
2024-05-09T09:19:08.000Z,1033.16
2024-05-09T09:20:08.000Z,1033.18
2024-05-09T09:21:08.000Z,1033.16
2024-05-09T09:22:08.000Z,1033.14
2024-05-09T09:23:09.000Z,1033.19
2024-05-09T09:24:09.000Z,1033.2
2024-05-09T09:25:09.000Z,1033.19
2024-05-09T09:26:10.000Z,1033.14
2024-05-09T09:27:10.000Z,1033.13
2024-05-09T09:28:10.000Z,1033.14
2024-05-09T09:29:10.000Z,1033.16
2024-05-09T09:30:11.000Z,1033.11
2024-05-09T09:31:11.000Z,1033.14
2024-05-09T09:32:11.000Z,1033.16
2024-05-09T09:33:11.000Z,1033.12
2024-05-09T09:34:12.000Z,1033.09
2024-05-09T09:35:12.000Z,1033.08
2024-05-09T09:36:12.000Z,1033.08
2024-05-09T09:37:13.000Z,1033.06
2024-05-09T09:38:13.000Z,1033.06
2024-05-09T09:39:13.000Z,1033.07
2024-05-09T09:40:13.000Z,1033.02
2024-05-09T09:41:14.000Z,1033.02
2024-05-09T09:42:14.000Z,1033.04
2024-05-09T09:43:14.000Z,1033.06
2024-05-09T09:44:14.000Z,1032.99
2024-05-09T09:45:15.000Z,1033.01
2024-05-09T09:46:15.000Z,1033.03
2024-05-09T09:47:15.000Z,1033.04
2024-05-09T09:48:16.000Z,1033.07
2024-05-09T09:49:16.000Z,1033.01
2024-05-09T09:50:16.000Z,1033.03
2024-05-09T09:51:17.000Z,1033.01
2024-05-09T09:52:17.000Z,1033.01
2024-05-09T09:53:17.000Z,1032.97
2024-05-09T09:54:17.000Z,1033.02
2024-05-09T09:55:18.000Z,1032.99
2024-05-09T09:56:18.000Z,1032.97
2024-05-09T09:57:18.000Z,1032.88
2024-05-09T09:58:18.000Z,1032.89
2024-05-09T09:59:19.000Z,1032.89
2024-05-09T10:00:19.000Z,1032.97
2024-05-09T10:01:19.000Z,1032.93
2024-05-09T10:02:19.000Z,1032.92
2024-05-09T10:03:20.000Z,1032.95
2024-05-09T10:04:20.000Z,1032.84
2024-05-09T10:05:20.000Z,1032.91
2024-05-09T10:06:20.000Z,1032.91
2024-05-09T10:07:20.000Z,1032.93
2024-05-09T10:08:21.000Z,1032.85
2024-05-09T10:09:21.000Z,1032.86
2024-05-09T10:10:21.000Z,1032.91
2024-05-09T10:11:21.000Z,1032.92
2024-05-09T10:12:22.000Z,1032.91
2024-05-09T10:13:22.000Z,1032.88
2024-05-09T10:14:22.000Z,1032.85
2024-05-09T10:15:22.000Z,1032.85
2024-05-09T10:16:23.000Z,1032.89
2024-05-09T10:17:23.000Z,1032.84
2024-05-09T10:18:23.000Z,1032.84
2024-05-09T10:19:24.000Z,1032.9
2024-05-09T10:20:24.000Z,1032.9
2024-05-09T10:21:24.000Z,1032.9
2024-05-09T10:22:24.000Z,1032.9
2024-05-09T10:23:25.000Z,1032.85
2024-05-09T10:24:25.000Z,1032.85
2024-05-09T10:25:25.000Z,1032.84
2024-05-09T10:26:25.000Z,1032.88
2024-05-09T10:27:26.000Z,1032.87
2024-05-09T10:28:26.000Z,1032.82
2024-05-09T10:29:26.000Z,1032.79
2024-05-09T10:30:27.000Z,1032.79
2024-05-09T10:31:27.000Z,1032.84
2024-05-09T10:32:27.000Z,1032.83
2024-05-09T10:33:27.000Z,1032.83
2024-05-09T10:34:28.000Z,1032.81
2024-05-09T10:35:28.000Z,1032.82
2024-05-09T10:36:28.000Z,1032.82
2024-05-09T10:37:28.000Z,1032.8
2024-05-09T10:38:29.000Z,1032.75
2024-05-09T10:39:29.000Z,1032.82
2024-05-09T10:40:29.000Z,1032.73
2024-05-09T10:41:29.000Z,1032.75
2024-05-09T10:42:30.000Z,1032.76
2024-05-09T10:43:30.000Z,1032.76
2024-05-09T10:44:30.000Z,1032.76
2024-05-09T10:45:30.000Z,1032.75
2024-05-09T10:46:31.000Z,1032.8
2024-05-09T10:47:31.000Z,1032.77
2024-05-09T10:48:31.000Z,1032.75
2024-05-09T10:49:32.000Z,1032.76
2024-05-09T10:50:32.000Z,1032.72
2024-05-09T10:51:32.000Z,1032.77
2024-05-09T10:52:32.000Z,1032.72
2024-05-09T10:53:33.000Z,1032.64
2024-05-09T10:54:33.000Z,1032.74
2024-05-09T10:55:33.000Z,1032.69
2024-05-09T10:56:33.000Z,1032.66
2024-05-09T10:57:34.000Z,1032.68
2024-05-09T10:58:34.000Z,1032.63
2024-05-09T10:59:34.000Z,1032.68
2024-05-09T11:00:34.000Z,1032.68
2024-05-09T11:01:35.000Z,1032.63
2024-05-09T11:02:35.000Z,1032.6
2024-05-09T11:03:35.000Z,1032.63
2024-05-09T11:04:35.000Z,1032.64
2024-05-09T11:05:36.000Z,1032.67
2024-05-09T11:06:36.000Z,1032.6
2024-05-09T11:07:36.000Z,1032.69
2024-05-09T11:08:36.000Z,1032.64
2024-05-09T11:09:37.000Z,1032.62
2024-05-09T11:10:37.000Z,1032.63
2024-05-09T11:11:37.000Z,1032.65
2024-05-09T11:12:37.000Z,1032.7
2024-05-09T11:13:38.000Z,1032.65
2024-05-09T11:14:38.000Z,1032.64
2024-05-09T11:15:38.000Z,1032.65
2024-05-09T11:16:38.000Z,1032.6
2024-05-09T11:17:39.000Z,1032.6
2024-05-09T11:18:39.000Z,1032.61
2024-05-09T11:19:39.000Z,1032.56
2024-05-09T11:20:39.000Z,1032.59
2024-05-09T11:21:40.000Z,1032.53
2024-05-09T11:22:40.000Z,1032.53
2024-05-09T11:23:40.000Z,1032.55
2024-05-09T11:24:40.000Z,1032.54
2024-05-09T11:25:41.000Z,1032.54
2024-05-09T11:26:41.000Z,1032.48
2024-05-09T11:27:41.000Z,1032.45
2024-05-09T11:28:41.000Z,1032.42
2024-05-09T11:29:42.000Z,1032.41
2024-05-09T11:30:42.000Z,1032.48
2024-05-09T11:31:42.000Z,1032.41
2024-05-09T11:32:43.000Z,1032.41
2024-05-09T11:33:43.000Z,1032.39
2024-05-09T11:34:43.000Z,1032.37
2024-05-09T11:35:43.000Z,1032.4
2024-05-09T11:36:43.000Z,1032.41
2024-05-09T11:37:44.000Z,1032.36
2024-05-09T11:38:44.000Z,1032.41
2024-05-09T11:39:44.000Z,1032.39
2024-05-09T11:40:45.000Z,1032.38
2024-05-09T11:41:45.000Z,1032.36
2024-05-09T11:42:45.000Z,1032.3
2024-05-09T11:43:45.000Z,1032.33
2024-05-09T11:44:46.000Z,1032.28
2024-05-09T11:45:46.000Z,1032.31
2024-05-09T11:46:46.000Z,1032.28
2024-05-09T11:47:46.000Z,1032.24
2024-05-09T11:48:47.000Z,1032.25
2024-05-09T11:49:47.000Z,1032.3
2024-05-09T11:50:47.000Z,1032.24
2024-05-09T11:51:47.000Z,1032.29
2024-05-09T11:52:48.000Z,1032.2
2024-05-09T11:53:48.000Z,1032.24
2024-05-09T11:54:48.000Z,1032.18
2024-05-09T11:55:48.000Z,1032.26
2024-05-09T11:56:49.000Z,1032.17
2024-05-09T11:57:49.000Z,1032.22
2024-05-09T11:58:49.000Z,1032.21
2024-05-09T11:59:49.000Z,1032.27
2024-05-09T12:00:50.000Z,1032.18